createdAt,value
2018-09-23T00:03:13.350Z,5.37
2018-09-23T00:07:15.561Z,5.80
2018-09-23T00:11:17.753Z,4.40
2018-09-23T00:15:19.955Z,4.90
2018-09-23T00:19:22.340Z,7.00
2018-09-23T00:23:24.551Z,5.57
2018-09-23T00:27:26.764Z,5.53
2018-09-23T00:31:28.960Z,3.17
2018-09-23T00:35:31.294Z,4.57
2018-09-23T00:39:33.530Z,8.00
2018-09-23T00:43:35.788Z,4.63
2018-09-23T00:47:37.930Z,8.53
2018-09-23T00:51:40.141Z,5.57
2018-09-23T00:55:42.349Z,5.57
2018-09-23T00:59:44.496Z,3.47
2018-09-23T01:03:46.630Z,8.77
2018-09-23T01:07:48.855Z,6.90
2018-09-23T01:11:51.079Z,6.03
2018-09-23T01:15:53.236Z,4.90
2018-09-23T01:19:55.402Z,4.47
2018-09-23T01:23:57.604Z,8.73
2018-09-23T01:27:59.778Z,7.50
2018-09-23T01:32:01.948Z,6.63
2018-09-23T01:36:04.147Z,9.27
2018-09-23T01:40:06.588Z,7.80
2018-09-23T01:44:08.764Z,8.57
2018-09-23T01:48:11.018Z,7.70
2018-09-23T01:52:13.158Z,12.97
2018-09-23T01:56:15.343Z,9.03
2018-09-23T02:00:17.517Z,8.23
2018-09-23T02:04:19.700Z,9.37
2018-09-23T02:08:21.839Z,8.87
2018-09-23T02:12:24.107Z,9.83
2018-09-23T02:16:26.282Z,9.37
2018-09-23T02:20:28.460Z,9.33
2018-09-23T02:24:30.608Z,9.77
2018-09-23T02:28:33.508Z,10.00
2018-09-23T02:32:35.666Z,11.40
2018-09-23T02:36:37.850Z,12.23
2018-09-23T02:40:40.940Z,11.90
2018-09-23T02:44:43.130Z,11.93
2018-09-23T02:48:45.331Z,12.87
2018-09-23T02:52:47.519Z,13.67
2018-09-23T02:56:49.728Z,13.10
2018-09-23T03:00:51.886Z,10.57
2018-09-23T03:04:54.083Z,10.63
2018-09-23T03:08:56.224Z,12.57
2018-09-23T03:12:58.420Z,12.33
2018-09-23T03:17:00.583Z,10.80
2018-09-23T03:21:02.806Z,9.73
2018-09-23T03:25:05.069Z,9.07
2018-09-23T03:29:07.229Z,9.57
2018-09-23T03:33:09.419Z,10.20
2018-09-23T03:37:11.590Z,10.10
2018-09-23T03:41:13.783Z,9.33
2018-09-23T03:45:15.987Z,8.53
2018-09-23T03:49:18.170Z,9.20
2018-09-23T03:53:20.338Z,7.40
2018-09-23T03:57:22.518Z,6.87
2018-09-23T04:01:24.668Z,5.57
2018-09-23T04:05:26.826Z,5.73
2018-09-23T04:09:28.967Z,5.20
2018-09-23T04:13:31.127Z,4.60
2018-09-23T04:17:33.278Z,4.20
2018-09-23T04:21:35.470Z,4.30
2018-09-23T04:25:37.607Z,4.10
2018-09-23T04:29:39.823Z,3.70
2018-09-23T04:33:41.995Z,2.40
2018-09-23T04:37:44.342Z,2.50
2018-09-23T04:41:46.467Z,2.07
2018-09-23T04:45:48.619Z,1.57
2018-09-23T04:49:50.779Z,1.20
2018-09-23T04:53:53.041Z,0.97
2018-09-23T04:57:55.222Z,0.60
2018-09-23T05:01:57.472Z,0.50
2018-09-23T05:05:59.610Z,0.50
2018-09-23T05:10:01.777Z,0.43
2018-09-23T05:14:04.054Z,0.30
2018-09-23T05:18:06.220Z,0.30
2018-09-23T05:22:08.499Z,0.37
2018-09-23T05:26:10.696Z,0.33
2018-09-23T05:30:12.877Z,0.97
2018-09-23T05:34:15.254Z,0.60
2018-09-23T05:38:17.454Z,1.30
2018-09-23T05:42:19.705Z,0.50
2018-09-23T05:46:21.998Z,0.80
2018-09-23T05:50:24.168Z,0.80
2018-09-23T05:54:26.357Z,0.63
2018-09-23T05:58:28.578Z,0.87
2018-09-23T06:02:30.837Z,0.80
2018-09-23T06:06:33.074Z,1.63
2018-09-23T06:10:35.239Z,0.93
2018-09-23T06:14:37.501Z,0.90
2018-09-23T06:18:39.819Z,1.67
2018-09-23T06:22:41.980Z,1.37
2018-09-23T06:26:44.146Z,0.90
2018-09-23T06:30:46.305Z,0.97
2018-09-23T06:34:48.494Z,1.17
2018-09-23T06:38:50.917Z,0.70
2018-09-23T06:42:53.247Z,0.83
2018-09-23T06:46:55.414Z,1.40
2018-09-23T06:50:57.704Z,1.10
2018-09-23T06:54:59.859Z,1.33
2018-09-23T06:59:03.475Z,0.90
2018-09-23T07:03:05.799Z,0.80
2018-09-23T07:07:08.039Z,0.70
2018-09-23T07:11:10.230Z,0.60
2018-09-23T07:15:12.484Z,0.77
2018-09-23T07:19:14.803Z,0.80
2018-09-23T07:23:17.022Z,0.70
2018-09-23T07:27:19.249Z,1.00
2018-09-23T07:31:21.688Z,0.73
2018-09-23T07:35:23.944Z,2.20
2018-09-23T07:39:26.159Z,0.90
2018-09-23T07:43:28.414Z,0.90
2018-09-23T07:47:31.609Z,0.70
2018-09-23T07:51:33.842Z,0.60
2018-09-23T07:55:36.154Z,0.50
2018-09-23T07:59:38.355Z,0.60
2018-09-23T08:03:40.519Z,0.70
2018-09-23T08:07:42.741Z,1.47
2018-09-23T08:11:44.943Z,1.50
2018-09-23T08:15:47.161Z,1.30
2018-09-23T08:19:49.756Z,1.43
2018-09-23T08:23:51.903Z,1.13
2018-09-23T08:27:54.094Z,0.90
2018-09-23T08:33:25.819Z,1.03
2018-09-23T08:37:28.068Z,0.60
2018-09-23T08:41:30.239Z,0.80
2018-09-23T08:45:32.444Z,0.80
2018-09-23T08:49:34.746Z,0.50
2018-09-23T08:53:37.089Z,0.37
2018-09-23T08:57:39.332Z,0.60
2018-09-23T09:01:41.496Z,0.50
2018-09-23T09:05:43.666Z,0.30
2018-09-23T09:09:45.930Z,0.47
2018-09-23T09:13:48.815Z,0.57
2018-09-23T09:17:52.528Z,0.57
2018-09-23T09:21:54.760Z,0.63
2018-09-23T09:25:57.786Z,0.50
2018-09-23T09:29:59.996Z,0.40
2018-09-23T09:34:03.043Z,0.67
2018-09-23T09:38:05.321Z,0.40
2018-09-23T09:42:07.547Z,1.00
2018-09-23T09:46:09.806Z,0.93
2018-09-23T09:50:12.441Z,0.77
2018-09-23T09:54:14.699Z,0.80
2018-09-23T09:58:17.046Z,0.90
2018-09-23T10:02:19.761Z,1.70
2018-09-23T10:06:22.082Z,2.60
2018-09-23T10:10:25.639Z,2.83
2018-09-23T10:14:28.505Z,4.33
2018-09-23T10:18:30.800Z,1.30
2018-09-23T10:22:33.212Z,0.97
2018-09-23T10:26:36.195Z,0.60
2018-09-23T10:30:38.446Z,0.40
2018-09-23T10:34:41.273Z,2.70
2018-09-23T10:38:43.804Z,1.07
2018-09-23T10:42:46.036Z,0.67
2018-09-23T10:46:48.244Z,1.30
2018-09-23T10:50:51.769Z,1.07
2018-09-23T10:54:54.124Z,4.07
2018-09-23T10:58:56.323Z,2.37
2018-09-23T11:02:58.653Z,1.93
2018-09-23T11:07:00.888Z,1.87
2018-09-23T11:11:03.283Z,1.07
2018-09-23T11:15:06.483Z,0.83
2018-09-23T11:19:09.393Z,2.70
2018-09-23T11:23:11.673Z,2.27
2018-09-23T11:27:14.602Z,0.43
2018-09-23T11:31:16.798Z,0.33
2018-09-23T11:35:18.994Z,0.50
2018-09-23T11:39:21.317Z,0.83
2018-09-23T11:43:23.714Z,1.90
2018-09-23T11:47:26.222Z,0.60
2018-09-23T11:51:28.418Z,0.60
2018-09-23T11:55:30.615Z,0.70
2018-09-23T11:59:32.823Z,0.47
2018-09-23T12:03:35.071Z,0.27
2018-09-23T12:07:37.268Z,0.40
2018-09-23T12:11:39.616Z,1.37
2018-09-23T12:15:41.918Z,0.47
2018-09-23T12:19:44.231Z,0.93
2018-09-23T12:23:46.532Z,0.97
2018-09-23T12:27:48.900Z,1.37
2018-09-23T12:31:51.140Z,0.60
2018-09-23T12:35:57.956Z,0.33
2018-09-23T12:40:00.411Z,0.47
2018-09-23T12:44:02.637Z,0.50
2018-09-23T12:48:04.939Z,0.40
2018-09-23T12:52:07.284Z,0.40
2018-09-23T12:56:09.604Z,0.30
2018-09-23T13:00:11.845Z,0.40
2018-09-23T13:04:14.540Z,0.70
2018-09-23T13:08:16.762Z,0.60
2018-09-23T13:12:18.989Z,0.90
2018-09-23T13:16:21.214Z,1.43
2018-09-23T13:20:23.509Z,2.00
2018-09-23T13:24:25.727Z,0.50
2018-09-23T13:28:27.954Z,0.50
2018-09-23T13:32:30.179Z,0.60
2018-09-23T13:36:32.396Z,0.47
2018-09-23T13:40:34.619Z,0.57
2018-09-23T13:44:36.866Z,0.60
2018-09-23T13:48:39.080Z,0.83
2018-09-23T13:52:41.323Z,1.17
2018-09-23T13:56:43.526Z,0.80
2018-09-23T14:00:45.808Z,0.70
2018-09-23T14:04:48.001Z,2.83
2018-09-23T14:08:50.294Z,24.97
2018-09-23T14:14:21.982Z,2.43
2018-09-23T14:18:24.301Z,4.07
2018-09-23T14:22:26.772Z,1.80
2018-09-23T14:26:29.054Z,2.17
2018-09-23T14:30:31.448Z,0.83
2018-09-23T14:34:33.681Z,3.13
2018-09-23T14:38:35.933Z,1.03
2018-09-23T14:42:38.170Z,1.00
2018-09-23T14:46:40.437Z,0.97
2018-09-23T14:50:42.671Z,1.67
2018-09-23T14:54:45.038Z,3.23
2018-09-23T14:58:47.135Z,0.40
2018-09-23T15:02:49.387Z,2.73
2018-09-23T15:06:51.665Z,0.90
2018-09-23T15:10:54.558Z,2.23
2018-09-23T15:14:56.848Z,0.87
2018-09-23T15:18:59.092Z,0.90
2018-09-23T15:23:01.378Z,1.23
2018-09-23T15:27:03.649Z,1.10
2018-09-23T15:31:05.923Z,0.83
2018-09-23T15:35:08.380Z,0.50
2018-09-23T15:39:10.694Z,0.83
2018-09-23T15:43:14.997Z,0.53
2018-09-23T15:47:17.251Z,1.87
2018-09-23T15:51:19.480Z,1.07
2018-09-23T15:55:21.745Z,0.40
2018-09-23T15:59:24.028Z,0.60
2018-09-23T16:03:26.252Z,0.43
2018-09-23T16:07:28.488Z,1.83
2018-09-23T16:11:30.743Z,0.33
2018-09-23T16:15:33.081Z,0.30
2018-09-23T16:19:35.420Z,0.60
2018-09-23T16:23:37.697Z,0.70
2018-09-23T16:27:39.972Z,0.30
2018-09-23T16:31:42.204Z,1.83
2018-09-23T16:35:44.459Z,0.40
2018-09-23T16:39:46.796Z,1.80
2018-09-23T16:43:48.995Z,0.37
2018-09-23T16:47:51.343Z,0.40
2018-09-23T16:51:53.658Z,0.53
2018-09-23T16:55:55.916Z,0.57
2018-09-23T16:59:58.115Z,0.70
2018-09-23T17:04:00.464Z,0.70
2018-09-23T17:08:02.893Z,3.03
2018-09-23T17:12:05.955Z,0.90
2018-09-23T17:16:08.236Z,1.90
2018-09-23T17:20:10.547Z,1.10
2018-09-23T17:24:12.810Z,1.10
2018-09-23T17:28:15.076Z,2.25
2018-09-23T17:32:17.352Z,1.00
2018-09-23T17:36:20.231Z,1.20
2018-09-23T17:40:22.826Z,0.97
2018-09-23T17:44:25.128Z,1.00
2018-09-23T17:48:27.981Z,1.63
2018-09-23T17:52:30.268Z,1.10
2018-09-23T17:56:32.561Z,1.00
2018-09-23T18:00:34.791Z,1.37
2018-09-23T18:04:37.038Z,1.47
2018-09-23T18:08:39.492Z,1.07
2018-09-23T18:12:41.716Z,0.77
2018-09-23T18:16:43.886Z,1.17
2018-09-23T18:20:46.157Z,1.30
2018-09-23T18:24:48.445Z,1.40
2018-09-23T18:28:50.802Z,2.67
2018-09-23T18:32:54.039Z,1.93
2018-09-23T18:36:56.384Z,1.17
2018-09-23T18:40:58.967Z,1.30
2018-09-23T18:45:01.318Z,1.90
2018-09-23T18:49:03.735Z,2.00
2018-09-23T18:53:11.776Z,2.43
2018-09-23T18:57:14.587Z,1.60
2018-09-23T19:01:16.893Z,2.00
2018-09-23T19:05:20.413Z,2.10
2018-09-23T19:09:22.685Z,1.80
2018-09-23T19:13:30.472Z,1.80
2018-09-23T19:17:32.741Z,2.57
2018-09-23T19:21:35.020Z,3.77
2018-09-23T19:25:37.489Z,3.33
2018-09-23T19:29:39.785Z,1.80
2018-09-23T19:33:42.032Z,2.10
2018-09-23T19:37:44.987Z,2.57
2018-09-23T19:41:47.416Z,4.97
2018-09-23T19:45:49.607Z,2.23
2018-09-23T19:49:52.243Z,1.67
2018-09-23T19:53:54.437Z,2.53
2018-09-23T19:57:58.279Z,2.13
2018-09-23T20:02:00.784Z,2.57
2018-09-23T20:06:03.039Z,2.40
2018-09-23T20:10:05.412Z,2.40
2018-09-23T20:14:07.843Z,2.33
2018-09-23T20:18:10.145Z,2.40
2018-09-23T20:22:13.454Z,3.97
2018-09-23T20:26:15.709Z,3.63
2018-09-23T20:30:18.148Z,2.53
2018-09-23T20:34:20.362Z,2.53
2018-09-23T20:38:22.580Z,4.63
2018-09-23T20:42:24.796Z,2.87
2018-09-23T20:46:27.009Z,3.80
2018-09-23T20:50:29.255Z,1.90
2018-09-23T20:54:31.471Z,3.10
2018-09-23T20:58:33.666Z,2.10
2018-09-23T21:02:35.849Z,2.60
2018-09-23T21:06:38.096Z,3.37
2018-09-23T21:10:40.295Z,3.23
2018-09-23T21:14:42.516Z,2.43
2018-09-23T21:18:44.743Z,5.33
2018-09-23T21:22:46.977Z,4.00
2018-09-23T21:26:49.196Z,4.87
2018-09-23T21:30:51.424Z,3.47
2018-09-23T21:34:55.225Z,3.20
2018-09-23T21:38:57.432Z,3.87
2018-09-23T21:42:59.676Z,3.67
2018-09-23T21:47:01.934Z,3.93
2018-09-23T21:51:04.131Z,3.47
2018-09-23T21:55:08.144Z,5.10
2018-09-23T21:59:10.444Z,4.30
2018-09-23T22:03:13.868Z,5.87
2018-09-23T22:07:16.705Z,4.67
2018-09-23T22:11:19.491Z,4.60
2018-09-23T22:15:24.173Z,4.60
2018-09-23T22:19:26.399Z,4.70
2018-09-23T22:23:28.673Z,4.27
2018-09-23T22:27:30.862Z,6.60
2018-09-23T22:31:33.176Z,3.93
2018-09-23T22:35:35.371Z,5.03
2018-09-23T22:39:37.581Z,4.80
2018-09-23T22:43:39.839Z,6.23
2018-09-23T22:47:42.100Z,7.07
2018-09-23T22:51:44.487Z,4.43
2018-09-23T22:55:47.253Z,5.77
2018-09-23T22:59:49.538Z,4.97
2018-09-23T23:03:52.476Z,5.93
2018-09-23T23:07:54.766Z,5.87
2018-09-23T23:11:57.036Z,6.17
2018-09-23T23:15:59.299Z,6.90
2018-09-23T23:20:01.551Z,7.40
2018-09-23T23:24:03.847Z,6.87
2018-09-23T23:28:06.165Z,7.47
2018-09-23T23:32:08.436Z,8.23
2018-09-23T23:36:10.660Z,11.47
2018-09-23T23:40:13.069Z,8.90
2018-09-23T23:44:15.277Z,10.17
2018-09-23T23:48:18.085Z,8.70
2018-09-23T23:52:20.295Z,8.60
2018-09-23T23:56:22.659Z,13.83
